Prairie Dell, Texas
Current Conditions -  °F | °C
As of 5:15 PM on Wednesday 26 Nov 2014 (Local Time) from KILE Reporting Station
Clear Clear  
Wind Chill: 64°   Ceiling: Unl
Heat Index: 64°   Visibility: 10mi
Dew Point: 28°   Wind: 5mph
Humidity: 26%   Direction: 350°N
Pressure: 30.21"   Gusts: NA
Location:  30.9273°N, 97.5558°W
Report Text: KILE 262315Z AUTO 35004KT 10SM CLR 18/M02 A3021 RMK AO1
Loading
Personal Weather Stations






























Interactive Weather Map New forecast layout! Learn more

10-Day Weather Forecast

Advertisements
Track Severe Weather on mobile